Terminal Aerodrome Forecast
Issued by NWS Springfield, MO

Home | Current Version | Previous Version | Text Only | Print | Product List | Glossary On
Versions: 1 2 3 4 5 6 7 8 9 10 11 12 13 14 15 16 17 18 19 20 21 22 23
000
FTUS43 KSGF 170500
TAFSGF
TAF
KSGF 170520Z 1706/1806 VRB04KT P6SM SKC
     FM170700 VRB04KT P6SM BKN250
     FM170900 VRB04KT P6SM OVC150
     FM171900 VRB04KT P6SM OVC060
     FM180100 VRB04KT 5SM -RASN BR OVC040=

USA.gov is the U.S. government's official web portal to all federal, state and local government web resources and services.